Time,TemperatureF,DewpointF,PressureIn,WindDirection,WindDirectionDegrees,WindSpeedMPH,WindSpeedGustMPH,Humidity,HourlyPrecipIn,Conditions,Clouds,dailyrainin,SolarRadiationWatts/m^2,SoftwareType,DateUTC
2013-01-29 00:15:00,31.2,30.0,29.89,West,264,0.0,-999.0,95,-99.99,,,0.00,0,weatherlink.com 1.10,2013-01-29 05:15:00,
2013-01-29 00:30:00,30.9,30.0,29.89,West,264,0.0,-999.0,95,-99.99,,,0.01,0,weatherlink.com 1.10,2013-01-29 05:30:00,
2013-01-29 00:45:00,31.0,30.0,29.90,West,264,0.0,-999.0,96,-99.99,,,0.01,0,weatherlink.com 1.10,2013-01-29 05:45:00,
2013-01-29 01:00:00,31.3,30.0,29.90,West,264,0.0,-999.0,96,-99.99,,,0.01,0,weatherlink.com 1.10,2013-01-29 06:00:00,
2013-01-29 01:15:00,31.9,31.0,29.90,West,264,1.0,-999.0,96,-99.99,,,0.01,0,weatherlink.com 1.10,2013-01-29 06:15:00,
2013-01-29 01:30:00,32.2,31.0,29.90,West,264,0.0,-999.0,96,-99.99,,,0.01,0,weatherlink.com 1.10,2013-01-29 06:30:00,
2013-01-29 01:45:00,32.5,32.0,29.91,West,264,0.0,-999.0,97,-99.99,,,0.01,0,weatherlink.com 1.10,2013-01-29 06:45:00,
2013-01-29 02:00:00,33.5,33.0,29.92,West,264,1.0,-999.0,97,-99.99,,,0.01,0,weatherlink.com 1.10,2013-01-29 07:00:00,
2013-01-29 02:15:00,33.7,33.0,29.92,West,274,3.0,-999.0,97,-99.99,,,0.01,0,weatherlink.com 1.10,2013-01-29 07:15:00,
2013-01-29 02:30:00,33.1,32.0,29.93,West,277,2.0,-999.0,97,-99.99,,,0.01,0,weatherlink.com 1.10,2013-01-29 07:30:00,
2013-01-29 02:45:00,32.7,32.0,29.94,West,277,0.0,-999.0,97,-99.99,,,0.01,0,weatherlink.com 1.10,2013-01-29 07:45:00,
2013-01-29 03:00:00,32.1,31.0,29.94,West,277,0.0,-999.0,97,-99.99,,,0.01,0,weatherlink.com 1.10,2013-01-29 08:00:00,
2013-01-29 03:15:00,31.8,31.0,29.94,West,278,0.0,-999.0,97,-99.99,,,0.01,0,weatherlink.com 1.10,2013-01-29 08:15:00,
2013-01-29 03:30:00,31.8,31.0,29.95,West,277,0.0,-999.0,97,-99.99,,,0.01,0,weatherlink.com 1.10,2013-01-29 08:30:00,
2013-01-29 03:45:00,31.8,31.0,29.95,West,278,1.0,-999.0,97,-99.99,,,0.01,0,weatherlink.com 1.10,2013-01-29 08:45:00,
2013-01-29 04:00:00,31.9,31.0,29.95,West,277,0.0,-999.0,97,-99.99,,,0.01,0,weatherlink.com 1.10,2013-01-29 09:00:00,
2013-01-29 04:15:00,31.8,31.0,29.96,West,277,0.0,-999.0,97,-99.99,,,0.01,0,weatherlink.com 1.10,2013-01-29 09:15:00,
2013-01-29 04:30:00,31.8,31.0,29.96,West,277,0.0,-999.0,98,-99.99,,,0.01,0,weatherlink.com 1.10,2013-01-29 09:30:00,
2013-01-29 04:45:00,31.9,31.0,29.97,West,277,0.0,-999.0,98,-99.99,,,0.01,0,weatherlink.com 1.10,2013-01-29 09:45:00,
2013-01-29 05:00:00,32.2,32.0,29.96,West,277,0.0,-999.0,98,-99.99,,,0.01,0,weatherlink.com 1.10,2013-01-29 10:00:00,
2013-01-29 05:15:00,32.4,32.0,29.97,West,278,0.0,-999.0,98,-99.99,,,0.01,0,weatherlink.com 1.10,2013-01-29 10:15:00,
2013-01-29 05:30:00,32.7,33.0,29.96,West,277,0.0,-999.0,99,-99.99,,,0.01,0,weatherlink.com 1.10,2013-01-29 10:30:00,
2013-01-29 05:45:00,32.9,33.0,29.97,West,277,0.0,-999.0,99,-99.99,,,0.01,0,weatherlink.com 1.10,2013-01-29 10:45:00,
2013-01-29 06:00:00,32.9,33.0,29.98,West,277,0.0,-999.0,99,-99.99,,,0.01,0,weatherlink.com 1.10,2013-01-29 11:00:00,
2013-01-29 06:15:00,32.9,33.0,29.98,West,277,0.0,-999.0,99,-99.99,,,0.01,0,weatherlink.com 1.10,2013-01-29 11:15:00,
2013-01-29 06:30:00,32.9,33.0,29.98,West,277,0.0,-999.0,99,-99.99,,,0.01,0,weatherlink.com 1.10,2013-01-29 11:30:00,
2013-01-29 06:45:00,32.9,33.0,29.99,West,278,0.0,-999.0,99,-99.99,,,0.01,0,weatherlink.com 1.10,2013-01-29 11:45:00,
2013-01-29 07:00:00,32.7,33.0,30.00,West,277,0.0,-999.0,99,-99.99,,,0.01,0,weatherlink.com 1.10,2013-01-29 12:00:00,
2013-01-29 07:15:00,32.5,32.0,30.00,West,277,0.0,-999.0,99,-99.99,,,0.01,0,weatherlink.com 1.10,2013-01-29 12:15:00,
2013-01-29 07:30:00,32.5,32.0,30.00,West,277,0.0,-999.0,99,-99.99,,,0.01,0,weatherlink.com 1.10,2013-01-29 12:30:00,
2013-01-29 07:45:00,32.7,33.0,30.00,West,277,0.0,-999.0,100,-99.99,,,0.01,14,weatherlink.com 1.10,2013-01-29 12:45:00,
2013-01-29 08:00:00,32.8,33.0,30.00,West,277,0.0,-999.0,100,-99.99,,,0.01,19,weatherlink.com 1.10,2013-01-29 13:00:00,
2013-01-29 08:15:00,32.7,33.0,30.00,West,277,0.0,-999.0,100,-99.99,,,0.01,33,weatherlink.com 1.10,2013-01-29 13:15:00,
2013-01-29 08:30:00,32.5,33.0,30.00,West,277,0.0,-999.0,100,-99.99,,,0.01,40,weatherlink.com 1.10,2013-01-29 13:30:00,
2013-01-29 08:45:00,32.5,33.0,30.00,West,278,0.0,-999.0,100,-99.99,,,0.01,88,weatherlink.com 1.10,2013-01-29 13:45:00,
2013-01-29 09:00:00,32.9,33.0,30.00,West,277,0.0,-999.0,100,-99.99,,,0.01,81,weatherlink.com 1.10,2013-01-29 14:00:00,
2013-01-29 09:16:00,32.9,33.0,30.01,West,277,0.0,-999.0,100,-99.99,,,0.01,81,weatherlink.com 1.10,2013-01-29 14:16:00,
2013-01-29 09:30:00,33.4,33.0,30.00,West,277,0.0,-999.0,100,-99.99,,,0.01,134,weatherlink.com 1.10,2013-01-29 14:30:00,
2013-01-29 09:45:00,33.7,34.0,30.02,West,277,0.0,-999.0,100,-99.99,,,0.01,125,weatherlink.com 1.10,2013-01-29 14:45:00,
2013-01-29 10:00:00,34.1,34.0,30.02,West,277,0.0,-999.0,100,-99.99,,,0.01,206,weatherlink.com 1.10,2013-01-29 15:00:00,
2013-01-29 10:15:00,35.5,36.0,30.01,West,277,1.0,-999.0,100,-99.99,,,0.01,238,weatherlink.com 1.10,2013-01-29 15:15:00,
2013-01-29 10:31:00,35.9,36.0,30.01,West,277,1.0,-999.0,100,-99.99,,,0.01,222,weatherlink.com 1.10,2013-01-29 15:31:00,
2013-01-29 10:45:00,36.0,36.0,30.01,West,277,0.0,-999.0,100,-99.99,,,0.01,245,weatherlink.com 1.10,2013-01-29 15:45:00,
2013-01-29 11:01:00,36.9,37.0,30.00,West,277,1.0,-999.0,100,-99.99,,,0.01,246,weatherlink.com 1.10,2013-01-29 16:01:00,
2013-01-29 11:16:00,38.5,39.0,29.99,SSE,164,5.0,-999.0,100,-99.99,,,0.01,283,weatherlink.com 1.10,2013-01-29 16:16:00,
2013-01-29 11:31:00,39.2,39.0,29.99,South,191,5.0,-999.0,100,-99.99,,,0.01,274,weatherlink.com 1.10,2013-01-29 16:31:00,
2013-01-29 11:46:00,39.9,40.0,29.97,South,179,5.0,-999.0,100,-99.99,,,0.01,299,weatherlink.com 1.10,2013-01-29 16:46:00,
2013-01-29 12:01:00,40.3,40.0,29.96,South,175,4.0,-999.0,100,-99.99,,,0.01,236,weatherlink.com 1.10,2013-01-29 17:01:00,
2013-01-29 12:16:00,41.1,40.0,29.96,SSE,168,3.0,-999.0,96,-99.99,,,0.01,197,weatherlink.com 1.10,2013-01-29 17:16:00,
2013-01-29 12:31:00,41.2,37.0,29.95,SSE,168,6.0,-999.0,86,-99.99,,,0.01,141,weatherlink.com 1.10,2013-01-29 17:31:00,
2013-01-29 12:46:00,41.5,37.0,29.95,South,175,1.0,-999.0,83,-99.99,,,0.01,153,weatherlink.com 1.10,2013-01-29 17:46:00,
2013-01-29 13:01:00,41.6,36.0,29.94,SE,144,3.0,-999.0,81,-99.99,,,0.01,144,weatherlink.com 1.10,2013-01-29 18:01:00,
2013-01-29 13:16:00,41.8,36.0,29.91,SSE,157,5.0,-999.0,79,-99.99,,,0.01,134,weatherlink.com 1.10,2013-01-29 18:16:00,
2013-01-29 13:31:00,41.3,35.0,29.91,SE,128,3.0,-999.0,78,-99.99,,,0.01,90,weatherlink.com 1.10,2013-01-29 18:31:00,
2013-01-29 13:46:00,39.5,34.0,29.93,ESE,119,6.0,-999.0,79,-99.99,,,0.01,72,weatherlink.com 1.10,2013-01-29 18:46:00,
2013-01-29 14:01:00,39.3,34.0,29.93,SE,124,2.0,-999.0,81,-99.99,,,0.01,69,weatherlink.com 1.10,2013-01-29 19:01:00,
2013-01-29 14:16:00,39.6,35.0,29.93,SE,124,3.0,-999.0,83,-99.99,,,0.01,60,weatherlink.com 1.10,2013-01-29 19:16:00,
2013-01-29 14:31:00,39.3,35.0,29.92,ESE,123,5.0,-999.0,83,-99.99,,,0.01,77,weatherlink.com 1.10,2013-01-29 19:31:00,
2013-01-29 14:46:00,38.6,34.0,29.91,ESE,123,10.0,-999.0,84,-99.99,,,0.01,79,weatherlink.com 1.10,2013-01-29 19:46:00,
2013-01-29 15:01:00,37.8,34.0,29.87,SE,131,10.0,-999.0,85,-99.99,,,0.01,109,weatherlink.com 1.10,2013-01-29 20:01:00,
2013-01-29 15:16:00,38.3,35.0,29.88,SE,130,12.0,-999.0,87,-99.99,,,0.01,86,weatherlink.com 1.10,2013-01-29 20:16:00,
2013-01-29 15:31:00,38.9,35.0,29.88,SE,131,7.0,-999.0,87,-99.99,,,0.01,49,weatherlink.com 1.10,2013-01-29 20:31:00,
2013-01-29 15:46:00,39.9,36.0,29.88,SE,128,7.0,-999.0,87,-99.99,,,0.01,60,weatherlink.com 1.10,2013-01-29 20:46:00,
2013-01-29 16:01:00,39.2,35.0,29.87,SE,131,3.0,-999.0,86,-99.99,,,0.01,32,weatherlink.com 1.10,2013-01-29 21:01:00,
2013-01-29 16:16:00,37.8,34.0,29.87,SSE,164,7.0,-999.0,85,-99.99,,,0.01,30,weatherlink.com 1.10,2013-01-29 21:16:00,
2013-01-29 16:31:00,37.2,33.0,29.88,SSE,147,10.0,-999.0,86,-99.99,,,0.01,11,weatherlink.com 1.10,2013-01-29 21:31:00,
2013-01-29 16:46:00,35.9,32.0,29.89,ESE,116,5.0,-999.0,86,-99.99,,,0.01,0,weatherlink.com 1.10,2013-01-29 21:46:00,
2013-01-29 17:01:00,35.6,32.0,29.89,SE,128,3.0,-999.0,88,-99.99,,,0.01,0,weatherlink.com 1.10,2013-01-29 22:01:00,
2013-01-29 17:16:00,35.8,33.0,29.89,SE,140,10.0,-999.0,88,-99.99,,,0.01,0,weatherlink.com 1.10,2013-01-29 22:16:00,
2013-01-29 17:46:00,36.2,34.0,29.91,SE,131,5.0,-999.0,90,-99.99,,,0.06,0,weatherlink.com 1.10,2013-01-29 22:46:00,
2013-01-29 18:01:00,36.9,35.0,29.89,SE,141,8.0,-999.0,92,-99.99,,,0.09,0,weatherlink.com 1.10,2013-01-29 23:01:00,
2013-01-29 18:16:00,39.2,38.0,29.86,SE,127,13.0,-999.0,95,-99.99,,,0.15,0,weatherlink.com 1.10,2013-01-29 23:16:00,
2013-01-29 18:31:00,38.9,38.0,29.87,SSE,150,6.0,-999.0,95,-99.99,,,0.16,0,weatherlink.com 1.10,2013-01-29 23:31:00,
2013-01-29 18:46:00,40.5,40.0,29.87,SE,140,7.0,-999.0,96,-99.99,,,0.16,0,weatherlink.com 1.10,2013-01-29 23:46:00,
2013-01-29 19:02:00,42.8,42.0,29.86,SSE,160,11.0,-999.0,98,-99.99,,,0.17,0,weatherlink.com 1.10,2013-01-30 00:02:00,
2013-01-29 19:17:00,43.5,43.0,29.86,SSE,164,5.0,-999.0,98,-99.99,,,0.17,0,weatherlink.com 1.10,2013-01-30 00:17:00,
2013-01-29 19:31:00,43.8,43.0,29.86,SSE,161,9.0,-999.0,98,-99.99,,,0.17,0,weatherlink.com 1.10,2013-01-30 00:31:00,
2013-01-29 19:47:00,44.1,44.0,29.85,SSW,203,11.0,-999.0,98,-99.99,,,0.17,0,weatherlink.com 1.10,2013-01-30 00:47:00,
2013-01-29 20:02:00,44.1,43.0,29.85,South,185,11.0,-999.0,97,-99.99,,,0.17,0,weatherlink.com 1.10,2013-01-30 01:02:00,
2013-01-29 20:17:00,44.2,43.0,29.85,SSE,157,8.0,-999.0,96,-99.99,,,0.17,0,weatherlink.com 1.10,2013-01-30 01:17:00,
2013-01-29 20:31:00,44.1,43.0,29.84,South,172,10.0,-999.0,95,-99.99,,,0.20,0,weatherlink.com 1.10,2013-01-30 01:31:00,
2013-01-29 20:46:00,44.2,43.0,29.85,SSE,167,7.0,-999.0,95,-99.99,,,0.20,0,weatherlink.com 1.10,2013-01-30 01:46:00,
2013-01-29 21:02:00,44.2,43.0,29.84,South,188,19.0,-999.0,95,-99.99,,,0.20,0,weatherlink.com 1.10,2013-01-30 02:02:00,
2013-01-29 21:17:00,44.2,43.0,29.83,SSE,158,10.0,-999.0,94,-99.99,,,0.20,0,weatherlink.com 1.10,2013-01-30 02:17:00,
2013-01-29 21:32:00,44.3,43.0,29.83,SSE,160,3.0,-999.0,94,-99.99,,,0.20,0,weatherlink.com 1.10,2013-01-30 02:32:00,
2013-01-29 21:46:00,44.5,43.0,29.84,SSE,151,0.0,-999.0,94,-99.99,,,0.20,0,weatherlink.com 1.10,2013-01-30 02:46:00,
2013-01-29 22:01:00,44.6,43.0,29.84,South,182,6.0,-999.0,94,-99.99,,,0.20,0,weatherlink.com 1.10,2013-01-30 03:01:00,
2013-01-29 22:17:00,44.9,43.0,29.83,SSE,155,12.0,-999.0,94,-99.99,,,0.20,0,weatherlink.com 1.10,2013-01-30 03:17:00,
2013-01-29 22:32:00,45.2,44.0,29.83,South,174,7.0,-999.0,94,-99.99,,,0.20,0,weatherlink.com 1.10,2013-01-30 03:32:00,
2013-01-29 22:46:00,45.5,44.0,29.83,South,186,6.0,-999.0,94,-99.99,,,0.20,0,weatherlink.com 1.10,2013-01-30 03:46:00,
2013-01-29 23:02:00,45.5,44.0,29.83,South,175,9.0,-999.0,93,-99.99,,,0.21,0,weatherlink.com 1.10,2013-01-30 04:02:00,
2013-01-29 23:17:00,46.0,44.0,29.82,SSE,165,10.0,-999.0,94,-99.99,,,0.21,0,weatherlink.com 1.10,2013-01-30 04:17:00,
2013-01-29 23:32:00,46.1,45.0,29.82,South,184,7.0,-999.0,94,-99.99,,,0.21,0,weatherlink.com 1.10,2013-01-30 04:32:00,
2013-01-29 23:47:00,46.4,45.0,29.82,SSE,157,6.0,-999.0,94,-99.99,,,0.22,0,weatherlink.com 1.10,2013-01-30 04:47:00,